Time;durP1;ratioP1;P1;durP2;ratioP2;P2;SDS_P1;SDS_P2;PMS_P1;PMS_P2;Temp;Humidity;BMP_temperature;BMP_pressure;BME280_temperature;BME280_humidity;BME280_pressure;Samples;Min_cycle;Max_cycle;Signal;HPM_P1;HPM_P2
2024/01/20 00:01:56;;;;;;;36.53;17.77;;;1.00;1.00;;;;;;5039088;28;20595;-80
2024/01/20 00:04:22;;;;;;;31.30;16.13;;;1.00;1.00;;;;;;5038751;28;20230;-80
2024/01/20 00:06:49;;;;;;;30.63;15.40;;;1.00;1.00;;;;;;5037739;28;20219;-77
2024/01/20 00:09:16;;;;;;;32.67;16.73;;;1.00;1.00;;;;;;5041678;28;20203;-80
2024/01/20 00:11:44;;;;;;;33.40;16.27;;;1.00;1.00;;;;;;5037024;28;20233;-79
2024/01/20 00:14:11;;;;;;;31.83;17.73;;;1.00;1.00;;;;;;5041416;28;20206;-80
2024/01/20 00:16:38;;;;;;;33.57;16.80;;;1.00;1.00;;;;;;5047119;28;20684;-80
2024/01/20 00:19:05;;;;;;;30.87;16.63;;;1.00;1.00;;;;;;5044354;28;20221;-78
2024/01/20 00:21:31;;;;;;;32.67;16.20;;;1.00;1.00;;;;;;5044346;28;20299;-80
2024/01/20 00:23:58;;;;;;;32.50;15.97;;;1.00;1.00;;;;;;5040067;28;20575;-78
2024/01/20 00:26:25;;;;;;;27.53;15.30;;;1.10;1.00;;;;;;5043472;28;20220;-80
2024/01/20 00:28:53;;;;;;;30.23;15.00;;;1.10;1.00;;;;;;5042398;28;20294;-80
2024/01/20 00:31:20;;;;;;;32.40;17.07;;;1.10;1.00;;;;;;5040520;28;21276;-81
2024/01/20 00:33:47;;;;;;;31.00;17.20;;;1.10;1.00;;;;;;5037222;28;20206;-79
2024/01/20 00:36:13;;;;;;;34.83;17.33;;;1.00;1.00;;;;;;5040055;28;20220;-80
2024/01/20 00:38:41;;;;;;;32.63;16.93;;;1.00;1.00;;;;;;5038782;28;21629;-81
2024/01/20 00:41:08;;;;;;;32.57;16.33;;;1.00;1.00;;;;;;5037162;28;20257;-80
2024/01/20 00:43:35;;;;;;;27.97;15.47;;;1.10;1.00;;;;;;5040061;28;20203;-78
2024/01/20 00:46:04;;;;;;;36.73;17.57;;;1.10;1.00;;;;;;5043764;28;20218;-80
2024/01/20 00:48:30;;;;;;;33.07;16.77;;;1.10;1.00;;;;;;5040478;28;20235;-80
2024/01/20 00:50:57;;;;;;;30.93;16.70;;;1.20;1.00;;;;;;5044389;28;20206;-80
2024/01/20 00:53:24;;;;;;;35.93;18.67;;;1.20;1.00;;;;;;5045374;28;20204;-80
2024/01/20 00:55:51;;;;;;;31.03;17.13;;;1.10;1.00;;;;;;5044765;28;20221;-81
2024/01/20 00:58:17;;;;;;;35.40;18.30;;;1.10;1.00;;;;;;5046661;28;20195;-79
2024/01/20 01:00:45;;;;;;;28.03;14.30;;;1.00;1.00;;;;;;5042266;28;20226;-78
2024/01/20 01:03:13;;;;;;;32.50;16.50;;;1.10;1.00;;;;;;5044396;28;20195;-80
2024/01/20 01:05:39;;;;;;;34.00;17.10;;;1.10;1.00;;;;;;5043260;28;20219;-79
2024/01/20 01:08:06;;;;;;;34.00;17.27;;;1.10;1.00;;;;;;5040107;28;20207;-79
2024/01/20 01:10:33;;;;;;;34.90;16.40;;;1.10;1.00;;;;;;5041507;28;20196;-80
2024/01/20 01:13:00;;;;;;;35.13;18.03;;;1.00;1.00;;;;;;5040441;28;20656;-80
2024/01/20 01:15:28;;;;;;;32.50;17.67;;;1.00;1.00;;;;;;5041029;28;20715;-79
2024/01/20 01:17:55;;;;;;;32.87;17.23;;;1.10;1.00;;;;;;5039810;28;20275;-79
2024/01/20 01:20:23;;;;;;;31.63;15.40;;;1.10;1.00;;;;;;5042225;28;20735;-80
2024/01/20 01:22:51;;;;;;;33.97;16.90;;;0.90;1.00;;;;;;5047744;28;20233;-80
2024/01/20 01:25:19;;;;;;;43.33;16.23;;;0.90;1.00;;;;;;5041862;28;20239;-81
2024/01/20 01:27:45;;;;;;;31.47;16.47;;;0.90;1.00;;;;;;5046724;28;20448;-80
2024/01/20 01:30:12;;;;;;;31.50;16.10;;;0.90;1.00;;;;;;5042800;28;20693;-80
2024/01/20 01:32:39;;;;;;;29.77;17.57;;;0.90;1.00;;;;;;5042653;28;20292;-80
2024/01/20 01:35:06;;;;;;;32.47;17.17;;;0.90;1.00;;;;;;5042654;28;20223;-80
2024/01/20 01:37:34;;;;;;;35.23;16.53;;;0.90;1.00;;;;;;5043406;28;20206;-81
2024/01/20 01:40:01;;;;;;;34.17;17.50;;;0.90;1.00;;;;;;5039282;28;20207;-81
2024/01/20 01:42:28;;;;;;;33.23;17.33;;;1.00;1.00;;;;;;5040527;28;20204;-80
2024/01/20 01:44:54;;;;;;;31.63;16.30;;;0.90;1.00;;;;;;5037679;28;20228;-80
2024/01/20 01:47:22;;;;;;;31.97;16.57;;;0.90;1.00;;;;;;5043266;28;20744;-81
2024/01/20 01:49:48;;;;;;;31.37;13.97;;;0.80;1.00;;;;;;5046160;28;20200;-79
2024/01/20 01:52:16;;;;;;;34.23;16.60;;;0.80;99.90;;;;;;5044212;28;20200;-80
2024/01/20 01:54:44;;;;;;;32.00;17.40;;;0.80;99.90;;;;;;5040955;28;20216;-80
2024/01/20 01:57:14;;;;;;;30.90;15.97;;;0.80;24.80;;;;;;5042285;28;20584;-81
2024/01/20 01:59:41;;;;;;;30.10;16.07;;;0.80;99.90;;;;;;5044455;28;20208;-79
2024/01/20 02:02:08;;;;;;;35.33;17.13;;;0.90;95.40;;;;;;5046164;28;20215;-79
2024/01/20 02:04:35;;;;;;;32.27;17.33;;;0.90;71.20;;;;;;5044861;28;20681;-80
2024/01/20 02:07:02;;;;;;;38.10;17.87;;;0.90;93.80;;;;;;5043060;28;20224;-79
2024/01/20 02:09:29;;;;;;;34.97;17.03;;;0.90;71.20;;;;;;5041486;28;20203;-79
2024/01/20 02:11:58;;;;;;;35.70;15.87;;;0.90;99.90;;;;;;5041347;28;20213;-80
2024/01/20 02:14:25;;;;;;;31.97;16.83;;;0.80;99.90;;;;;;5041038;28;20310;-80
2024/01/20 02:16:52;;;;;;;36.40;16.97;;;0.70;99.90;;;;;;5039888;28;20290;-80
2024/01/20 02:19:19;;;;;;;30.53;15.57;;;0.70;99.90;;;;;;5040026;28;20203;-79
2024/01/20 02:21:45;;;;;;;30.27;15.67;;;0.80;99.90;;;;;;5038822;28;21579;-80
2024/01/20 02:24:13;;;;;;;32.07;17.03;;;0.80;1.00;;;;;;5038542;28;20218;-80
2024/01/20 02:26:40;;;;;;;35.20;18.50;;;0.80;99.90;;;;;;5040183;28;20220;-81
2024/01/20 02:29:07;;;;;;;35.67;18.97;;;0.80;99.90;;;;;;5041016;28;20350;-79
2024/01/20 02:31:34;;;;;;;37.20;17.20;;;0.70;1.00;;;;;;5043266;28;20204;-79
2024/01/20 02:34:01;;;;;;;36.93;17.83;;;0.70;1.00;;;;;;5043969;28;20590;-79
2024/01/20 02:36:27;;;;;;;33.30;17.57;;;0.70;1.00;;;;;;5039654;28;20690;-79
2024/01/20 02:38:54;;;;;;;33.47;17.17;;;0.70;1.00;;;;;;5039776;28;20207;-79
2024/01/20 02:41:22;;;;;;;38.53;19.40;;;0.70;1.00;;;;;;5039808;28;20658;-80
2024/01/20 02:43:49;;;;;;;29.33;15.67;;;0.70;1.00;;;;;;5040766;28;20572;-79
2024/01/20 02:46:16;;;;;;;35.70;17.53;;;0.80;1.00;;;;;;5041437;28;21010;-78
2024/01/20 02:48:42;;;;;;;33.43;16.00;;;0.80;1.00;;;;;;5038845;28;20700;-79
2024/01/20 02:51:10;;;;;;;37.90;18.73;;;0.80;1.00;;;;;;5039526;28;20212;-80
2024/01/20 02:53:36;;;;;;;37.57;18.10;;;0.80;1.00;;;;;;5042879;28;20628;-79
2024/01/20 02:56:03;;;;;;;34.43;17.03;;;0.70;1.00;;;;;;5041885;28;20319;-81
2024/01/20 02:58:31;;;;;;;36.50;18.20;;;0.70;1.00;;;;;;5043066;28;20195;-81
2024/01/20 03:01:00;;;;;;;34.77;17.43;;;0.80;1.00;;;;;;5042063;28;20207;-81
2024/01/20 03:03:27;;;;;;;35.37;16.40;;;0.80;1.00;;;;;;5040410;28;20227;-80
2024/01/20 03:05:54;;;;;;;36.60;18.10;;;0.80;1.00;;;;;;5043090;28;20230;-81
2024/01/20 03:08:21;;;;;;;38.37;18.90;;;1.00;1.00;;;;;;5043082;28;20203;-79
2024/01/20 03:10:47;;;;;;;36.57;16.83;;;1.00;1.00;;;;;;5037823;28;20210;-80
2024/01/20 03:13:14;;;;;;;39.47;18.53;;;0.90;1.00;;;;;;5038999;28;20294;-81
2024/01/20 03:15:42;;;;;;;40.60;19.07;;;1.00;1.00;;;;;;5038201;28;20261;-79
2024/01/20 03:18:10;;;;;;;37.37;18.93;;;1.00;1.00;;;;;;5039910;28;20200;-81
2024/01/20 03:20:37;;;;;;;26.00;11.20;;;0.90;1.00;;;;;;5036797;28;20204;-79
2024/01/20 03:23:04;;;;;;;39.83;18.87;;;1.00;1.00;;;;;;5037761;28;20204;-80
2024/01/20 03:25:31;;;;;;;36.00;19.43;;;0.90;1.00;;;;;;5038762;28;20532;-80
2024/01/20 03:27:58;;;;;;;37.37;18.47;;;0.90;1.00;;;;;;5040786;28;20223;-79
2024/01/20 03:30:25;;;;;;;37.33;17.57;;;0.80;1.00;;;;;;5036670;28;20275;-79
2024/01/20 03:32:53;;;;;;;45.03;19.97;;;0.80;1.00;;;;;;5038069;28;20200;-80
2024/01/20 03:35:22;;;;;;;39.13;19.33;;;0.70;1.00;;;;;;5039460;28;20672;-78
2024/01/20 03:37:49;;;;;;;32.73;16.30;;;0.80;20.90;;;;;;5039495;28;20266;-80
2024/01/20 03:40:16;;;;;;;33.37;17.93;;;0.70;99.90;;;;;;5039028;28;20956;-81
2024/01/20 03:42:42;;;;;;;37.67;18.13;;;0.80;1.00;;;;;;5037870;28;20195;-79
2024/01/20 03:45:10;;;;;;;34.10;16.43;;;0.80;1.00;;;;;;5036950;28;20582;-80
2024/01/20 03:47:36;;;;;;;35.60;17.20;;;0.90;1.00;;;;;;5041795;28;20229;-78
2024/01/20 03:50:06;;;;;;;34.70;17.73;;;0.80;1.00;;;;;;5031884;28;20207;-79
2024/01/20 03:52:33;;;;;;;36.63;18.37;;;0.90;1.00;;;;;;5036834;28;20554;-80
2024/01/20 03:54:59;;;;;;;35.73;16.60;;;1.00;1.00;;;;;;5044111;28;20571;-80
2024/01/20 03:57:26;;;;;;;34.83;18.43;;;0.90;1.00;;;;;;5043316;28;20199;-77
2024/01/20 03:59:53;;;;;;;36.07;18.70;;;0.90;1.00;;;;;;5045378;28;20199;-79
2024/01/20 04:02:20;;;;;;;33.47;17.37;;;1.30;1.00;;;;;;5047796;28;20199;-78
2024/01/20 04:04:47;;;;;;;32.23;17.00;;;1.00;1.00;;;;;;5044395;28;20246;-79
2024/01/20 04:07:15;;;;;;;31.17;16.70;;;1.00;1.00;;;;;;5044071;28;20595;-78
2024/01/20 04:09:42;;;;;;;26.07;13.03;;;1.00;1.00;;;;;;5039057;28;20226;-80
2024/01/20 04:12:09;;;;;;;31.77;16.17;;;0.90;1.00;;;;;;5039139;28;20222;-81
2024/01/20 04:14:35;;;;;;;33.27;17.20;;;0.90;1.00;;;;;;5043156;28;20218;-78
2024/01/20 04:17:03;;;;;;;32.47;16.40;;;0.90;1.00;;;;;;5037900;28;20592;-81
2024/01/20 04:19:30;;;;;;;30.47;14.80;;;1.00;99.90;;;;;;5042671;28;20206;-78
2024/01/20 04:21:57;;;;;;;34.33;15.47;;;0.90;99.90;;;;;;5043196;28;20581;-80
2024/01/20 04:24:25;;;;;;;30.10;15.40;;;0.90;99.90;;;;;;5045493;28;20625;-79
2024/01/20 04:26:51;;;;;;;33.17;16.40;;;0.90;99.90;;;;;;5043309;28;20669;-80
2024/01/20 04:29:18;;;;;;;27.97;14.97;;;0.90;99.90;;;;;;5041727;28;20207;-80
2024/01/20 04:31:45;;;;;;;29.33;15.50;;;0.80;99.90;;;;;;5041092;28;20199;-82
2024/01/20 04:34:12;;;;;;;29.67;15.10;;;0.80;99.90;;;;;;5040964;28;20713;-80
2024/01/20 04:36:38;;;;;;;25.30;13.33;;;0.70;99.90;;;;;;5039164;28;20204;-79
2024/01/20 04:39:05;;;;;;;30.00;13.90;;;0.70;99.90;;;;;;5039846;28;20210;-81
2024/01/20 04:41:33;;;;;;;24.57;11.23;;;0.70;1.00;;;;;;5040929;28;20204;-79
2024/01/20 04:44:00;;;;;;;23.93;11.70;;;0.70;1.00;;;;;;5041086;28;20730;-81
2024/01/20 04:46:27;;;;;;;27.37;12.67;;;0.70;1.00;;;;;;5040628;28;20317;-79
2024/01/20 04:48:54;;;;;;;23.00;13.27;;;0.60;1.00;;;;;;5047047;28;21182;-77
2024/01/20 04:51:21;;;;;;;25.30;13.50;;;0.60;1.00;;;;;;5046235;28;20589;-78
2024/01/20 04:53:47;;;;;;;27.37;12.40;;;0.70;1.00;;;;;;5033828;28;20199;-78
2024/01/20 04:56:14;;;;;;;28.73;12.07;;;0.60;1.00;;;;;;5052231;28;20233;-79
2024/01/20 04:58:42;;;;;;;23.30;11.93;;;0.70;1.00;;;;;;5050431;28;20207;-78
2024/01/20 05:01:09;;;;;;;25.87;11.80;;;0.60;1.00;;;;;;5044035;28;20209;-80
2024/01/20 05:03:36;;;;;;;20.43;9.53;;;0.60;1.00;;;;;;5046029;28;20254;-81
2024/01/20 05:06:03;;;;;;;22.43;11.40;;;0.70;1.00;;;;;;5037411;28;20232;-80
2024/01/20 05:08:30;;;;;;;25.23;10.93;;;0.60;1.00;;;;;;5044653;28;20227;-78
2024/01/20 05:10:56;;;;;;;27.70;12.63;;;0.60;1.00;;;;;;5038797;28;20436;-78
2024/01/20 05:13:23;;;;;;;26.57;12.40;;;0.60;1.00;;;;;;5042500;28;20226;-79
2024/01/20 05:15:53;;;;;;;25.17;12.50;;;0.70;1.00;;;;;;5042417;28;20239;-80
2024/01/20 05:18:20;;;;;;;27.57;11.00;;;0.50;1.00;;;;;;5042566;28;20199;-78
2024/01/20 05:20:47;;;;;;;23.40;11.90;;;0.50;1.00;;;;;;5035167;28;20199;-80
2024/01/20 05:23:14;;;;;;;22.20;11.27;;;0.60;1.00;;;;;;5034514;28;20219;-77
2024/01/20 05:25:40;;;;;;;26.87;11.30;;;0.60;99.90;;;;;;5040248;28;20222;-78
2024/01/20 05:28:07;;;;;;;18.67;8.90;;;0.60;99.90;;;;;;5036225;28;20228;-78
2024/01/20 05:30:34;;;;;;;26.73;11.20;;;0.50;99.90;;;;;;5038653;28;20668;-78
2024/01/20 05:33:03;;;;;;;23.87;12.30;;;0.50;1.00;;;;;;5039167;28;20617;-79
2024/01/20 05:35:30;;;;;;;23.00;11.37;;;0.40;1.00;;;;;;5035865;28;20219;-79
2024/01/20 05:37:56;;;;;;;22.30;11.40;;;0.40;1.00;;;;;;5036446;28;20246;-79
2024/01/20 05:40:23;;;;;;;20.43;11.00;;;0.40;1.00;;;;;;5036547;28;20282;-77
2024/01/20 05:42:50;;;;;;;25.07;10.87;;;0.30;1.00;;;;;;5034911;28;20209;-79
2024/01/20 05:45:17;;;;;;;22.77;10.60;;;0.20;1.00;;;;;;5036193;28;20216;-80
2024/01/20 05:47:44;;;;;;;24.00;10.97;;;0.20;1.00;;;;;;5042645;28;20231;-79
2024/01/20 05:50:12;;;;;;;23.00;11.27;;;0.20;1.00;;;;;;5035605;28;20211;-79
2024/01/20 05:52:39;;;;;;;20.87;10.33;;;0.10;1.00;;;;;;5047799;28;20225;-78
2024/01/20 05:55:07;;;;;;;20.37;8.70;;;0.20;1.00;;;;;;5041179;28;20230;-81
2024/01/20 05:57:34;;;;;;;26.20;11.57;;;0.10;1.00;;;;;;5047160;28;20206;-80
2024/01/20 06:00:01;;;;;;;20.73;9.23;;;0.10;1.00;;;;;;5049933;28;20208;-81
2024/01/20 06:02:27;;;;;;;25.57;11.20;;;0.00;1.00;;;;;;5049175;28;20203;-81
2024/01/20 06:04:54;;;;;;;19.97;9.27;;;0.00;1.00;;;;;;5037174;28;20242;-79
2024/01/20 06:07:22;;;;;;;22.90;10.50;;;0.00;1.00;;;;;;5039300;28;20222;-81
2024/01/20 06:09:49;;;;;;;21.43;10.67;;;0.10;1.00;;;;;;5041071;28;20261;-81
2024/01/20 06:12:16;;;;;;;21.93;10.43;;;0.00;1.00;;;;;;5042418;28;20222;-80
2024/01/20 06:14:43;;;;;;;27.90;11.77;;;0.00;1.00;;;;;;5038294;28;20228;-80
2024/01/20 06:17:10;;;;;;;24.83;11.07;;;0.10;1.00;;;;;;5038130;28;20682;-80
2024/01/20 06:19:37;;;;;;;21.97;10.67;;;0.10;1.00;;;;;;5037766;28;20203;-79
2024/01/20 06:22:04;;;;;;;20.57;8.53;;;0.00;1.00;;;;;;5036891;28;20596;-79
2024/01/20 06:24:32;;;;;;;21.43;10.73;;;0.00;1.00;;;;;;5039062;28;20581;-80
2024/01/20 06:26:59;;;;;;;18.53;8.80;;;0.10;1.00;;;;;;5037929;28;20228;-80
2024/01/20 06:29:26;;;;;;;22.47;10.13;;;0.10;1.00;;;;;;5038141;28;20208;-79
2024/01/20 06:31:53;;;;;;;24.57;10.60;;;0.10;99.90;;;;;;5038167;28;20225;-78
2024/01/20 06:34:20;;;;;;;18.70;8.67;;;0.10;99.90;;;;;;5037874;28;20207;-78
2024/01/20 06:36:46;;;;;;;23.00;10.53;;;0.10;99.90;;;;;;5036445;28;20600;-78
2024/01/20 06:39:13;;;;;;;23.63;10.53;;;0.00;99.90;;;;;;5035267;28;20234;-81
2024/01/20 06:41:45;;;;;;;23.67;11.17;;;0.10;99.90;;;;;;5035524;28;20211;-80
2024/01/20 06:44:11;;;;;;;23.70;9.80;;;0.10;99.90;;;;;;5034182;28;20214;-79
2024/01/20 06:46:38;;;;;;;23.07;9.50;;;0.00;99.90;;;;;;5032987;28;20212;-79
2024/01/20 06:49:05;;;;;;;19.97;9.50;;;0.10;99.90;;;;;;5031346;28;20227;-79
2024/01/20 06:51:32;;;;;;;25.20;10.10;;;0.00;99.90;;;;;;5040184;28;20553;-80
2024/01/20 06:53:59;;;;;;;23.50;10.80;;;0.00;99.90;;;;;;5037139;28;20210;-80
2024/01/20 06:56:25;;;;;;;20.00;9.03;;;0.00;99.90;;;;;;5042642;28;20522;-79
2024/01/20 06:58:55;;;;;;;22.27;10.53;;;0.00;99.90;;;;;;5042189;28;20208;-81
2024/01/20 07:01:22;;;;;;;26.47;10.10;;;0.00;99.90;;;;;;5046719;28;20646;-79
2024/01/20 07:03:49;;;;;;;25.50;10.87;;;0.00;99.90;;;;;;5038439;28;20212;-79
2024/01/20 07:06:16;;;;;;;28.23;11.57;;;0.00;99.90;;;;;;5048809;28;20232;-81
2024/01/20 07:08:43;;;;;;;24.57;10.90;;;0.00;99.90;;;;;;5040266;28;20226;-81
2024/01/20 07:11:10;;;;;;;26.37;11.80;;;-0.10;1.00;;;;;;5040052;28;20207;-81
2024/01/20 07:13:37;;;;;;;25.13;12.17;;;-0.10;1.00;;;;;;5045051;28;20211;-81
2024/01/20 07:16:11;;;;;;;20.47;10.57;;;-0.10;1.00;;;;;;5040632;28;20458;-79
2024/01/20 07:18:38;;;;;;;24.80;12.00;;;-0.10;99.90;;;;;;5038729;28;20195;-80
2024/01/20 07:21:05;;;;;;;24.23;9.63;;;-0.20;1.00;;;;;;5033652;28;20211;-79
2024/01/20 07:23:32;;;;;;;24.73;10.93;;;-0.20;1.00;;;;;;5037715;28;20233;-81
2024/01/20 07:25:59;;;;;;;24.70;10.77;;;-0.10;1.00;;;;;;5035383;28;20255;-81
2024/01/20 07:28:26;;;;;;;21.87;9.60;;;-0.10;1.00;;;;;;5032088;28;20231;-80
2024/01/20 07:30:53;;;;;;;27.50;11.67;;;0.00;1.00;;;;;;5034927;28;20226;-79
2024/01/20 07:33:22;;;;;;;28.53;12.47;;;0.00;1.00;;;;;;5036603;28;20215;-80
2024/01/20 07:35:48;;;;;;;25.37;11.53;;;-0.10;1.00;;;;;;5034162;28;20219;-81
2024/01/20 07:38:15;;;;;;;23.27;11.23;;;-0.10;1.00;;;;;;5038302;28;20278;-79
2024/01/20 07:40:42;;;;;;;28.17;11.90;;;-0.10;1.00;;;;;;5036877;28;20204;-79
2024/01/20 07:43:09;;;;;;;27.10;12.53;;;0.10;1.00;;;;;;5035052;28;20639;-80
2024/01/20 07:45:35;;;;;;;33.03;12.20;;;0.00;1.00;;;;;;5031928;28;20258;-80
2024/01/20 07:48:03;;;;;;;25.07;11.83;;;0.00;1.00;;;;;;5031565;28;20238;-79
2024/01/20 07:50:31;;;;;;;26.07;11.73;;;-0.10;1.00;;;;;;5031419;28;20212;-79
2024/01/20 07:52:58;;;;;;;24.57;12.03;;;-0.10;1.00;;;;;;5032576;28;20214;-77
2024/01/20 07:55:24;;;;;;;25.63;12.20;;;0.00;1.00;;;;;;5030999;28;20234;-80
2024/01/20 07:57:51;;;;;;;23.93;10.73;;;-0.10;1.00;;;;;;5041596;28;20200;-80
2024/01/20 08:00:19;;;;;;;24.77;11.43;;;-0.10;1.00;;;;;;5032729;28;20203;-81
2024/01/20 08:02:45;;;;;;;19.43;9.17;;;-0.10;1.00;;;;;;5045068;28;20229;-77
2024/01/20 08:05:12;;;;;;;25.60;11.60;;;-0.10;1.00;;;;;;5041646;28;20701;-79
2024/01/20 08:07:40;;;;;;;26.03;10.93;;;0.00;99.90;;;;;;5041499;28;20314;-76
2024/01/20 08:10:08;;;;;;;24.00;10.57;;;0.00;99.90;;;;;;5042986;28;20953;-79
2024/01/20 08:12:34;;;;;;;23.00;11.03;;;0.10;99.90;;;;;;5045297;28;20582;-80
2024/01/20 08:15:01;;;;;;;25.67;11.67;;;0.20;99.90;;;;;;5036321;28;20251;-80
2024/01/20 08:17:28;;;;;;;27.63;11.83;;;0.10;94.20;;;;;;5041265;28;20207;-77
2024/01/20 08:19:55;;;;;;;22.53;10.20;;;0.10;99.90;;;;;;5039321;28;20202;-78
2024/01/20 08:22:22;;;;;;;20.97;11.43;;;0.20;78.20;;;;;;5039787;28;20199;-80
2024/01/20 08:24:50;;;;;;;21.57;10.17;;;0.30;1.00;;;;;;5039870;28;20250;-78
2024/01/20 08:27:17;;;;;;;24.57;11.50;;;0.30;1.00;;;;;;5033517;28;20207;-77
2024/01/20 08:29:44;;;;;;;25.60;11.53;;;0.60;1.00;;;;;;5035853;28;20199;-79
2024/01/20 08:32:10;;;;;;;26.33;11.00;;;0.60;1.00;;;;;;5030402;28;20208;-78
2024/01/20 08:34:37;;;;;;;24.67;10.80;;;0.80;1.00;;;;;;5035363;28;20745;-79
2024/01/20 08:37:04;;;;;;;23.97;10.53;;;1.20;1.00;;;;;;5034528;28;20199;-79
2024/01/20 08:39:31;;;;;;;24.23;10.83;;;1.30;99.90;;;;;;5033310;28;20200;-80
2024/01/20 08:41:59;;;;;;;23.77;10.07;;;1.70;99.90;;;;;;5033262;28;20235;-79
2024/01/20 08:44:26;;;;;;;22.90;11.53;;;1.70;99.90;;;;;;5032708;28;20224;-79
2024/01/20 08:46:53;;;;;;;19.03;9.10;;;1.50;99.90;;;;;;5028321;28;20285;-80
2024/01/20 08:49:21;;;;;;;21.87;10.40;;;1.40;99.90;;;;;;5028550;28;20219;-79
2024/01/20 08:51:48;;;;;;;21.03;10.30;;;1.20;99.90;;;;;;5032845;28;20204;-78
2024/01/20 08:54:15;;;;;;;22.00;10.90;;;1.40;99.90;;;;;;5032175;28;20199;-79
2024/01/20 08:56:43;;;;;;;21.80;9.30;;;1.50;99.90;;;;;;5032366;28;20311;-79
2024/01/20 08:59:11;;;;;;;20.57;9.57;;;1.00;99.90;;;;;;5032378;28;20267;-80
2024/01/20 09:01:38;;;;;;;22.93;11.17;;;1.10;99.90;;;;;;5032083;28;20210;-80
2024/01/20 09:04:05;;;;;;;23.50;9.87;;;1.50;99.90;;;;;;5048691;28;20208;-81
2024/01/20 09:06:31;;;;;;;24.67;10.83;;;1.40;99.90;;;;;;5041117;28;20200;-80
2024/01/20 09:08:58;;;;;;;21.27;9.67;;;1.40;99.90;;;;;;5037042;28;20228;-80
2024/01/20 09:11:25;;;;;;;25.07;11.50;;;1.50;99.90;;;;;;5039815;28;20199;-78
2024/01/20 09:13:52;;;;;;;22.27;8.73;;;1.80;99.60;;;;;;5038156;28;20196;-79
2024/01/20 09:16:21;;;;;;;23.80;10.43;;;1.80;1.00;;;;;;5041256;28;20243;-79
2024/01/20 09:18:47;;;;;;;18.57;9.63;;;1.70;1.00;;;;;;5041567;28;20573;-79
2024/01/20 09:21:14;;;;;;;23.80;9.97;;;1.40;99.90;;;;;;5042838;28;21850;-79
2024/01/20 09:23:42;;;;;;;23.73;10.43;;;1.60;89.00;;;;;;5044831;28;20213;-79
2024/01/20 09:26:09;;;;;;;22.23;10.50;;;1.30;99.90;;;;;;5040237;28;20223;-77
2024/01/20 09:28:35;;;;;;;25.83;12.07;;;1.60;99.90;;;;;;5039290;28;20229;-79
2024/01/20 09:31:03;;;;;;;23.87;10.67;;;2.10;52.30;;;;;;5039585;28;20200;-79
2024/01/20 09:33:32;;;;;;;19.37;9.87;;;2.30;1.00;;;;;;5036221;28;21610;-78
2024/01/20 09:35:59;;;;;;;19.20;9.30;;;2.10;1.00;;;;;;5037145;28;20591;-79
2024/01/20 09:38:28;;;;;;;21.67;9.93;;;2.10;1.00;;;;;;5036115;28;20199;-78
2024/01/20 09:40:56;;;;;;;23.17;10.57;;;3.40;1.00;;;;;;5033187;28;20200;-78
2024/01/20 09:43:22;;;;;;;20.53;9.43;;;3.10;1.00;;;;;;5034602;28;20208;-76
2024/01/20 09:45:50;;;;;;;23.40;11.27;;;2.40;1.00;;;;;;5035050;28;20219;-79
2024/01/20 09:48:17;;;;;;;21.50;10.07;;;2.30;1.00;;;;;;5034714;28;20587;-78
2024/01/20 09:50:45;;;;;;;19.77;9.57;;;1.90;1.00;;;;;;5038709;28;20203;-79
2024/01/20 09:53:14;;;;;;;21.20;9.63;;;2.30;1.00;;;;;;5037567;28;20212;-78
2024/01/20 09:55:42;;;;;;;19.40;9.77;;;2.00;1.00;;;;;;5036778;28;20227;-80
2024/01/20 09:58:12;;;;;;;21.60;10.07;;;2.00;1.00;;;;;;5037696;28;20680;-79
2024/01/20 10:00:39;;;;;;;23.40;9.37;;;2.10;1.00;;;;;;5036507;28;20211;-78
2024/01/20 10:03:09;;;;;;;21.53;10.53;;;2.10;1.00;;;;;;5036020;28;20204;-78
2024/01/20 10:05:36;;;;;;;23.60;11.23;;;2.20;1.00;;;;;;5035205;28;20219;-78
2024/01/20 10:08:05;;;;;;;20.43;10.20;;;2.20;1.00;;;;;;5033060;28;20642;-78
2024/01/20 10:10:32;;;;;;;23.63;10.63;;;2.30;1.00;;;;;;5049583;28;20665;-81
2024/01/20 10:13:01;;;;;;;20.63;9.23;;;2.40;1.00;;;;;;5037132;28;20656;-79
2024/01/20 10:15:30;;;;;;;20.73;8.77;;;2.40;1.00;;;;;;5034691;28;20222;-79
2024/01/20 10:17:57;;;;;;;19.53;9.30;;;2.50;1.00;;;;;;5044612;28;20467;-77
2024/01/20 10:20:31;;;;;;;22.10;9.80;;;2.50;1.00;;;;;;5042815;28;20207;-80
2024/01/20 10:23:01;;;;;;;17.90;7.40;;;2.40;1.00;;;;;;5043479;28;20649;-78
2024/01/20 10:25:29;;;;;;;19.57;8.67;;;2.40;1.00;;;;;;5041391;28;20231;-79
2024/01/20 10:27:58;;;;;;;18.07;8.10;;;2.50;1.00;;;;;;5037844;28;20203;-79
2024/01/20 10:30:26;;;;;;;17.37;7.83;;;2.50;1.00;;;;;;5038629;28;20230;-79
2024/01/20 10:32:53;;;;;;;18.13;8.27;;;2.40;1.00;;;;;;5036943;28;20270;-78
2024/01/20 10:35:20;;;;;;;18.67;8.17;;;2.60;1.00;;;;;;5035739;28;20249;-79
2024/01/20 10:37:49;;;;;;;19.63;7.37;;;2.40;1.00;;;;;;5038100;28;20203;-78
2024/01/20 10:40:17;;;;;;;18.73;8.70;;;2.50;1.00;;;;;;5036522;28;20196;-79
2024/01/20 10:42:46;;;;;;;17.37;7.33;;;2.50;1.00;;;;;;5037359;28;20200;-81
2024/01/20 10:45:17;;;;;;;14.47;7.33;;;2.50;1.00;;;;;;5034951;28;20230;-81
2024/01/20 10:47:54;;;;;;;20.73;8.47;;;2.60;1.00;;;;;;5034224;28;20535;-81
2024/01/20 10:50:23;;;;;;;19.43;8.93;;;2.50;1.00;;;;;;5039745;28;20226;-81
2024/01/20 10:52:51;;;;;;;20.90;8.07;;;2.50;1.00;;;;;;5040249;28;20208;-80
2024/01/20 10:55:19;;;;;;;16.50;8.33;;;2.50;1.00;;;;;;5038531;28;20227;-80
2024/01/20 10:57:47;;;;;;;19.50;8.60;;;2.50;1.00;;;;;;5043169;28;20290;-80
2024/01/20 11:00:15;;;;;;;17.40;8.53;;;2.60;1.00;;;;;;5045819;28;20887;-80
2024/01/20 11:02:43;;;;;;;20.67;9.43;;;2.70;1.00;;;;;;5043276;28;20702;-80
2024/01/20 11:05:21;;;;;;;17.30;8.07;;;2.80;1.00;;;;;;5041482;28;20233;-79
2024/01/20 11:07:59;;;;;;;18.20;9.40;;;2.50;1.00;;;;;;5031724;28;20200;-80
2024/01/20 11:10:26;;;;;;;19.00;8.80;;;2.40;1.00;;;;;;5033896;28;20223;-79
2024/01/20 11:13:01;;;;;;;15.40;7.77;;;2.50;1.00;;;;;;5033874;28;20246;-76
2024/01/20 11:15:32;;;;;;;18.77;8.67;;;2.60;1.00;;;;;;5036580;28;20219;-79
2024/01/20 11:17:59;;;;;;;17.57;7.83;;;2.70;1.00;;;;;;5035748;28;20210;-78
2024/01/20 11:20:27;;;;;;;18.67;8.57;;;2.70;1.00;;;;;;5037714;28;20582;-81
2024/01/20 11:22:54;;;;;;;17.00;7.50;;;2.70;1.00;;;;;;5036492;28;20215;-80
2024/01/20 11:25:22;;;;;;;15.00;7.33;;;2.60;1.00;;;;;;5035532;28;20227;-78
2024/01/20 11:27:51;;;;;;;14.27;7.47;;;2.60;1.00;;;;;;5040232;28;20732;-79
2024/01/20 11:30:27;;;;;;;16.47;7.43;;;2.60;1.00;;;;;;5037884;28;20251;-77
2024/01/20 11:32:54;;;;;;;16.03;7.63;;;2.70;1.00;;;;;;5035301;28;20207;-80
2024/01/20 11:35:21;;;;;;;17.27;8.00;;;2.60;1.00;;;;;;5035744;28;20731;-79
2024/01/20 11:37:49;;;;;;;14.93;7.43;;;2.80;1.00;;;;;;5037064;28;20214;-79
2024/01/20 11:40:16;;;;;;;16.83;8.13;;;2.90;1.00;;;;;;5036380;28;20203;-79
2024/01/20 11:42:43;;;;;;;14.33;7.60;;;2.90;1.00;;;;;;5035943;28;20204;-81
2024/01/20 11:45:10;;;;;;;16.77;8.20;;;2.80;1.00;;;;;;5034240;28;20709;-79
2024/01/20 11:47:38;;;;;;;15.70;7.30;;;2.90;1.00;;;;;;5033578;28;20696;-78
2024/01/20 11:50:06;;;;;;;16.47;8.10;;;2.80;1.00;;;;;;5036000;28;20318;-79
2024/01/20 11:52:33;;;;;;;16.20;7.27;;;2.80;1.00;;;;;;5037241;28;20207;-80
2024/01/20 11:55:00;;;;;;;18.03;8.30;;;2.70;1.00;;;;;;5039478;28;20229;-81
2024/01/20 11:57:29;;;;;;;19.00;8.20;;;2.80;1.00;;;;;;5038506;28;20586;-77
2024/01/20 11:59:57;;;;;;;17.00;7.67;;;2.90;1.00;;;;;;5036255;28;20227;-80
2024/01/20 12:02:24;;;;;;;16.03;7.53;;;2.90;1.00;;;;;;5035849;28;20210;-81
2024/01/20 12:04:53;;;;;;;15.43;7.77;;;2.90;1.00;;;;;;5035627;28;20697;-80
2024/01/20 12:07:20;;;;;;;17.90;8.20;;;2.80;1.00;;;;;;5034284;28;20199;-80
2024/01/20 12:09:47;;;;;;;15.73;7.57;;;3.30;1.00;;;;;;5033242;28;20227;-80
2024/01/20 12:12:14;;;;;;;13.87;6.90;;;3.40;1.00;;;;;;5035312;28;20211;-78
2024/01/20 12:14:42;;;;;;;17.90;6.83;;;3.30;1.00;;;;;;5035042;28;20224;-79
2024/01/20 12:17:09;;;;;;;15.97;7.40;;;3.20;1.00;;;;;;5033196;28;20219;-80
2024/01/20 12:19:38;;;;;;;12.97;6.47;;;3.10;1.00;;;;;;5033630;28;20607;-80
2024/01/20 12:22:07;;;;;;;19.30;7.80;;;2.90;1.00;;;;;;5031941;28;20253;-78
2024/01/20 12:24:35;;;;;;;13.10;6.20;;;2.70;1.00;;;;;;5040275;28;20249;-80
2024/01/20 12:27:02;;;;;;;13.40;6.77;;;2.60;1.00;;;;;;5041469;28;20211;-80
2024/01/20 12:29:29;;;;;;;14.93;7.53;;;2.90;1.00;;;;;;5044224;28;20223;-81
2024/01/20 12:31:56;;;;;;;14.77;7.57;;;2.50;1.00;;;;;;5040698;28;20223;-81
2024/01/20 12:34:25;;;;;;;13.73;6.47;;;2.40;1.00;;;;;;5039110;28;20200;-80
2024/01/20 12:36:53;;;;;;;18.17;8.03;;;2.40;1.00;;;;;;5036971;28;20242;-78
2024/01/20 12:39:21;;;;;;;16.07;7.93;;;2.30;1.00;;;;;;5039938;28;20199;-80
2024/01/20 12:41:48;;;;;;;15.67;7.57;;;2.30;1.00;;;;;;5040446;28;20225;-80
2024/01/20 12:44:15;;;;;;;12.80;7.17;;;2.20;1.00;;;;;;5038756;28;20212;-78
2024/01/20 12:46:42;;;;;;;18.07;6.83;;;2.20;1.00;;;;;;5037091;28;20709;-82
2024/01/20 12:49:09;;;;;;;13.63;6.63;;;2.20;1.00;;;;;;5037318;28;20219;-80